createdAt,value
2023-08-30T00:00:46.304Z,96.1
2023-08-30T00:02:03.409Z,96.1
2023-08-30T00:03:20.513Z,96.2
2023-08-30T00:04:37.617Z,96.1
2023-08-30T00:05:54.723Z,96.1
2023-08-30T00:07:11.827Z,95.9
2023-08-30T00:08:28.931Z,95.9
2023-08-30T00:09:46.035Z,95.7
2023-08-30T00:11:03.140Z,95.7
2023-08-30T00:12:20.244Z,95.6
2023-08-30T00:13:36.365Z,95.6
2023-08-30T00:14:53.469Z,95.6
2023-08-30T00:16:10.574Z,95.8
2023-08-30T00:17:27.678Z,95.9
2023-08-30T00:18:44.782Z,96
2023-08-30T00:20:01.886Z,96.1
2023-08-30T00:21:18.991Z,96.5
2023-08-30T00:22:36.095Z,96.5
2023-08-30T00:23:53.199Z,96.3
2023-08-30T00:25:10.304Z,96.5
2023-08-30T00:26:27.408Z,96.7
2023-08-30T00:27:44.512Z,96.8
2023-08-30T00:29:01.616Z,96.8
2023-08-30T00:30:17.737Z,96.8
2023-08-30T00:31:34.841Z,96.7
2023-08-30T00:32:51.945Z,96.5
2023-08-30T00:34:09.049Z,96.5
2023-08-30T00:35:26.154Z,96.3
2023-08-30T00:36:43.258Z,96.3
2023-08-30T00:38:00.362Z,96.2
2023-08-30T00:39:17.466Z,96.1
2023-08-30T00:40:34.571Z,96
2023-08-30T00:41:51.675Z,95.8
2023-08-30T00:43:08.779Z,95.7
2023-08-30T00:44:25.883Z,95.8
2023-08-30T00:45:42.988Z,95.7
2023-08-30T00:46:59.108Z,95.4
2023-08-30T00:48:16.213Z,95.4
2023-08-30T00:49:33.318Z,95.2
2023-08-30T00:50:50.422Z,95.3
2023-08-30T00:52:07.526Z,95.4
2023-08-30T00:53:24.630Z,95.4
2023-08-30T00:54:41.735Z,95.3
2023-08-30T00:55:58.839Z,95.3
2023-08-30T00:57:15.943Z,95.4
2023-08-30T00:58:33.048Z,95.3
2023-08-30T00:59:50.152Z,95.4
2023-08-30T01:01:07.257Z,95.2
2023-08-30T01:02:24.361Z,95.1
2023-08-30T01:03:40.482Z,95
2023-08-30T01:04:57.586Z,95
2023-08-30T01:06:14.691Z,95
2023-08-30T01:07:31.795Z,95.1
2023-08-30T01:08:48.900Z,95
2023-08-30T01:10:06.004Z,95
2023-08-30T01:11:23.108Z,95.2
2023-08-30T01:12:40.213Z,95.2
2023-08-30T01:13:57.317Z,95.4
2023-08-30T01:15:14.421Z,95.4
2023-08-30T01:16:31.526Z,95.4
2023-08-30T01:17:48.630Z,95.5
2023-08-30T01:19:05.735Z,95.5
2023-08-30T01:20:21.855Z,95.6
2023-08-30T01:21:38.959Z,95.7
2023-08-30T01:22:56.063Z,95.6
2023-08-30T01:24:13.168Z,95.6
2023-08-30T01:25:30.272Z,95.6
2023-08-30T01:26:47.377Z,95.5
2023-08-30T01:28:03.497Z,95.5
2023-08-30T01:29:20.601Z,95.6
2023-08-30T01:30:37.706Z,95.5
2023-08-30T01:31:54.810Z,95.5
2023-08-30T01:33:11.915Z,95.4
2023-08-30T01:34:29.019Z,95.5
2023-08-30T01:35:46.123Z,95.5
2023-08-30T01:37:03.228Z,95.4
2023-08-30T01:38:20.332Z,95.5
2023-08-30T01:39:37.437Z,95.6
2023-08-30T01:40:54.541Z,95.6
2023-08-30T01:42:11.646Z,95.8
2023-08-30T01:43:28.750Z,95.8
2023-08-30T01:44:44.870Z,95.9
2023-08-30T01:46:01.974Z,95.8
2023-08-30T01:47:19.079Z,95.9
2023-08-30T01:48:36.183Z,95.9
2023-08-30T01:49:53.287Z,95.7
2023-08-30T01:51:10.391Z,95.7
2023-08-30T01:52:27.497Z,95.8
2023-08-30T01:53:44.601Z,95.7
2023-08-30T01:55:01.705Z,95.7
2023-08-30T01:56:18.810Z,95.6
2023-08-30T01:57:35.914Z,95.6
2023-08-30T01:58:53.018Z,95.5
2023-08-30T02:00:10.122Z,95.5
2023-08-30T02:01:26.243Z,95.5
2023-08-30T02:02:43.347Z,95.7
2023-08-30T02:04:00.451Z,95.8
2023-08-30T02:05:17.555Z,95.8
2023-08-30T02:06:34.660Z,96
2023-08-30T02:07:51.764Z,96
2023-08-30T02:09:08.868Z,96
2023-08-30T02:10:25.972Z,96
2023-08-30T02:11:43.077Z,96
2023-08-30T02:13:00.181Z,96.1
2023-08-30T02:14:17.285Z,96.3
2023-08-30T02:15:34.390Z,96.5
2023-08-30T02:16:51.494Z,96.3
2023-08-30T02:18:07.614Z,96.7
2023-08-30T02:19:24.718Z,96.6
2023-08-30T02:20:41.822Z,96.7
2023-08-30T02:21:58.927Z,96.7
2023-08-30T02:23:16.031Z,96.8
2023-08-30T02:24:33.135Z,96.6
2023-08-30T02:25:50.240Z,96.3
2023-08-30T02:27:07.345Z,95.9
2023-08-30T02:28:24.449Z,96.5
2023-08-30T02:29:41.553Z,96.5
2023-08-30T02:30:58.657Z,96.5
2023-08-30T02:32:15.762Z,96.3
2023-08-30T02:33:32.866Z,95.9
2023-08-30T02:34:48.986Z,96.1
2023-08-30T02:36:06.090Z,96.5
2023-08-30T02:37:23.194Z,97.2
2023-08-30T02:38:40.299Z,97.3
2023-08-30T02:39:57.403Z,97.2
2023-08-30T02:41:14.507Z,97.2
2023-08-30T02:42:31.611Z,97.3
2023-08-30T02:43:48.715Z,97.2
2023-08-30T02:45:05.819Z,96.9
2023-08-30T02:46:22.924Z,97.2
2023-08-30T02:47:40.028Z,97.2
2023-08-30T02:48:57.132Z,97.8
2023-08-30T02:50:14.237Z,97.7
2023-08-30T02:51:30.358Z,97.7
2023-08-30T02:52:47.462Z,97.6
2023-08-30T02:54:04.566Z,97.3
2023-08-30T02:55:21.670Z,97.1
2023-08-30T02:56:38.774Z,97.4
2023-08-30T02:57:55.878Z,97.3
2023-08-30T02:59:12.982Z,97.8
2023-08-30T03:00:30.087Z,97.7
2023-08-30T03:01:47.191Z,97.7
2023-08-30T03:03:04.296Z,98.2
2023-08-30T03:04:21.401Z,98.6
2023-08-30T03:05:38.505Z,98.8
2023-08-30T03:06:55.609Z,98.6
2023-08-30T03:08:11.730Z,98.5
2023-08-30T03:09:28.834Z,98.4
2023-08-30T03:10:45.938Z,98.3
2023-08-30T03:12:03.043Z,98.3
2023-08-30T03:13:20.147Z,98.3
2023-08-30T03:14:37.251Z,98.3
2023-08-30T03:15:54.355Z,98.4
2023-08-30T03:17:11.459Z,98.4
2023-08-30T03:18:28.565Z,98.3
2023-08-30T03:19:45.669Z,98.3
2023-08-30T03:21:02.773Z,98.3
2023-08-30T03:22:19.878Z,98.3
2023-08-30T03:23:36.982Z,98.2
2023-08-30T03:24:53.102Z,98
2023-08-30T03:26:10.206Z,98
2023-08-30T03:27:27.310Z,98
2023-08-30T03:28:44.415Z,98.2
2023-08-30T03:30:01.519Z,98.2
2023-08-30T03:31:18.623Z,98.3
2023-08-30T03:32:35.727Z,98.5
2023-08-30T03:33:52.832Z,98.5
2023-08-30T03:35:09.936Z,98.5
2023-08-30T03:36:27.040Z,98.5
2023-08-30T03:37:44.144Z,98.3
2023-08-30T03:39:01.248Z,98.3
2023-08-30T03:40:18.353Z,98.1
2023-08-30T03:41:34.473Z,98.1
2023-08-30T03:42:51.577Z,98.1
2023-08-30T03:44:08.681Z,98
2023-08-30T03:45:25.786Z,98.1
2023-08-30T03:46:42.890Z,98.2
2023-08-30T03:47:59.994Z,98.3
2023-08-30T03:49:17.098Z,98.4
2023-08-30T03:50:34.202Z,98.3
2023-08-30T03:51:51.307Z,98.3
2023-08-30T03:53:08.412Z,98.3
2023-08-30T03:54:25.516Z,98.2
2023-08-30T03:55:42.621Z,98.2
2023-08-30T03:56:59.725Z,98.2
2023-08-30T03:58:15.846Z,98
2023-08-30T03:59:32.950Z,97.9
2023-08-30T04:00:50.054Z,98.1
2023-08-30T04:02:07.158Z,98.1
2023-08-30T04:03:24.262Z,98.1
2023-08-30T04:04:41.367Z,98.1
2023-08-30T04:05:58.471Z,98.1
2023-08-30T04:07:15.575Z,98.1
2023-08-30T04:08:32.679Z,98.1
2023-08-30T04:09:49.784Z,98.1
2023-08-30T04:11:06.888Z,98
2023-08-30T04:12:23.992Z,97.9
2023-08-30T04:13:41.096Z,98
2023-08-30T04:14:57.216Z,98
2023-08-30T04:16:14.321Z,97.9
2023-08-30T04:17:31.425Z,97.8
2023-08-30T04:18:48.529Z,97.8
2023-08-30T04:20:05.633Z,98.1
2023-08-30T04:21:22.738Z,98.2
2023-08-30T04:22:39.842Z,98.3
2023-08-30T04:23:56.946Z,98.3
2023-08-30T04:25:14.050Z,98.3
2023-08-30T04:26:31.155Z,98.3
2023-08-30T04:27:48.259Z,98.2
2023-08-30T04:29:05.364Z,98.1
2023-08-30T04:30:22.468Z,97.7
2023-08-30T04:31:38.588Z,97.3
2023-08-30T04:32:55.693Z,97
2023-08-30T04:34:12.797Z,96.7
2023-08-30T04:35:29.901Z,96.7
2023-08-30T04:36:47.005Z,96.9
2023-08-30T04:38:04.109Z,96.9
2023-08-30T04:39:21.214Z,96.7
2023-08-30T04:40:38.318Z,96.7
2023-08-30T04:41:55.422Z,96.7
2023-08-30T04:43:12.527Z,96.8
2023-08-30T04:44:29.631Z,96.8
2023-08-30T04:45:46.735Z,96.8
2023-08-30T04:47:03.839Z,96.6
2023-08-30T04:48:19.960Z,96.6
2023-08-30T04:49:37.064Z,96.5
2023-08-30T04:50:54.168Z,96.6
2023-08-30T04:52:11.273Z,96.5
2023-08-30T04:53:28.377Z,96.5
2023-08-30T04:54:45.482Z,96.6
2023-08-30T04:56:02.586Z,96.6
2023-08-30T04:57:19.691Z,96.6
2023-08-30T04:58:36.795Z,96.5
2023-08-30T04:59:53.899Z,96.6
2023-08-30T05:01:11.003Z,96.7
2023-08-30T05:02:28.108Z,96.6
2023-08-30T05:03:45.212Z,96.5
2023-08-30T05:05:01.332Z,96.5
2023-08-30T05:06:18.437Z,96.3
2023-08-30T05:07:35.541Z,96.1
2023-08-30T05:08:52.645Z,96.2
2023-08-30T05:10:09.749Z,96
2023-08-30T05:11:26.854Z,95.9
2023-08-30T05:12:43.958Z,96
2023-08-30T05:14:01.063Z,95.9
2023-08-30T05:15:18.167Z,95.9
2023-08-30T05:16:35.271Z,95.8
2023-08-30T05:17:52.375Z,95.6
2023-08-30T05:19:09.479Z,95.5
2023-08-30T05:20:26.583Z,95.5
2023-08-30T05:21:42.704Z,95.4
2023-08-30T05:22:59.809Z,95.2
2023-08-30T05:24:16.913Z,95.2
2023-08-30T05:25:34.018Z,95.3
2023-08-30T05:26:51.123Z,95.4
2023-08-30T05:28:08.227Z,95.2
2023-08-30T05:29:25.331Z,95.2
2023-08-30T05:30:42.436Z,95.1
2023-08-30T05:31:59.540Z,94.9
2023-08-30T05:33:16.645Z,94.5
2023-08-30T05:34:33.749Z,94.4
2023-08-30T05:35:50.853Z,93.9
2023-08-30T05:37:07.958Z,93.6
2023-08-30T05:38:24.078Z,93.4
2023-08-30T05:39:41.182Z,93.4
2023-08-30T05:40:58.286Z,93.3
2023-08-30T05:42:15.391Z,93.4
2023-08-30T05:43:32.495Z,93.2
2023-08-30T05:44:49.599Z,93.3
2023-08-30T05:46:05.720Z,93.3
2023-08-30T05:47:22.824Z,93
2023-08-30T05:48:39.929Z,92.7
2023-08-30T05:49:57.033Z,92.8
2023-08-30T05:51:14.137Z,93
2023-08-30T05:52:31.242Z,93.1
2023-08-30T05:53:48.346Z,93
2023-08-30T05:55:05.450Z,93.1
2023-08-30T05:56:22.555Z,93.1
2023-08-30T05:57:39.659Z,93.3
2023-08-30T05:58:56.763Z,93.2
2023-08-30T06:00:13.868Z,92.8
2023-08-30T06:01:30.972Z,92.4
2023-08-30T06:02:47.093Z,91.7
2023-08-30T06:04:04.197Z,91.8
2023-08-30T06:05:21.301Z,91.8
2023-08-30T06:06:38.406Z,91.8
2023-08-30T06:07:55.510Z,91.5
2023-08-30T06:09:12.615Z,91.4
2023-08-30T06:10:29.719Z,91.2
2023-08-30T06:11:46.824Z,91.2
2023-08-30T06:13:03.928Z,91
2023-08-30T06:14:21.033Z,91.6
2023-08-30T06:15:38.137Z,91.4
2023-08-30T06:16:55.242Z,91.2
2023-08-30T06:18:12.346Z,90.8
2023-08-30T06:19:28.467Z,90.6
2023-08-30T06:20:45.571Z,90.2
2023-08-30T06:22:02.676Z,89.3
2023-08-30T06:23:19.780Z,88.7
2023-08-30T06:24:36.885Z,88.2
2023-08-30T06:25:53.989Z,88
2023-08-30T06:27:11.093Z,87.7
2023-08-30T06:28:28.197Z,87.2
2023-08-30T06:29:45.301Z,87
2023-08-30T06:31:02.405Z,86.8
2023-08-30T06:32:19.509Z,86.7
2023-08-30T06:33:36.613Z,86.3
2023-08-30T06:34:53.717Z,86.3
2023-08-30T06:36:09.837Z,86.1
2023-08-30T06:37:26.941Z,85.8
2023-08-30T06:38:44.045Z,85.6
2023-08-30T06:40:01.149Z,85.4
2023-08-30T06:41:18.253Z,85.3
2023-08-30T06:42:35.357Z,85
2023-08-30T06:43:52.461Z,84.8
2023-08-30T06:45:09.565Z,84.7
2023-08-30T06:46:26.669Z,84.5
2023-08-30T06:47:43.774Z,84.4
2023-08-30T06:49:00.878Z,84.2
2023-08-30T06:50:17.982Z,84.1
2023-08-30T06:51:35.086Z,84.2
2023-08-30T06:52:51.206Z,84.3
2023-08-30T06:54:08.310Z,83.9
2023-08-30T06:55:25.415Z,83.5
2023-08-30T06:56:42.519Z,83
2023-08-30T06:57:59.623Z,82.5
2023-08-30T06:59:16.727Z,81.7
2023-08-30T07:00:33.832Z,80.4
2023-08-30T07:01:50.936Z,80.2
2023-08-30T07:03:08.040Z,80.3
2023-08-30T07:04:25.144Z,80
2023-08-30T07:05:42.249Z,78.3
2023-08-30T07:06:59.353Z,77
2023-08-30T07:08:16.456Z,76.5
2023-08-30T07:09:32.577Z,75.1
2023-08-30T07:10:49.681Z,74.8
2023-08-30T07:12:06.784Z,73.3
2023-08-30T07:13:23.888Z,71.1
2023-08-30T07:14:40.992Z,69
2023-08-30T07:15:58.096Z,67.5
2023-08-30T07:17:15.201Z,66.4
2023-08-30T07:18:32.306Z,65
2023-08-30T07:19:49.410Z,63.1
2023-08-30T07:21:06.514Z,62.8
2023-08-30T07:22:23.617Z,62.9
2023-08-30T07:23:40.721Z,62.2
2023-08-30T07:24:57.825Z,60.9
2023-08-30T07:26:13.946Z,59.4
2023-08-30T07:27:31.051Z,58.4
2023-08-30T07:28:48.155Z,57.7
2023-08-30T07:30:05.259Z,57.1
2023-08-30T07:31:22.363Z,56.5
2023-08-30T07:32:39.467Z,56.5
2023-08-30T07:33:56.571Z,56.1
2023-08-30T07:35:13.675Z,56.1
2023-08-30T07:36:30.779Z,55
2023-08-30T07:37:47.884Z,54.1
2023-08-30T07:39:04.989Z,53.3
2023-08-30T07:40:22.093Z,54.1
2023-08-30T07:41:39.197Z,53.9
2023-08-30T07:42:55.318Z,53.6
2023-08-30T07:44:12.422Z,53.6
2023-08-30T07:45:29.526Z,53.2
2023-08-30T07:46:46.630Z,53.4
2023-08-30T07:48:03.734Z,52.5
2023-08-30T07:49:20.838Z,52.2
2023-08-30T07:50:37.942Z,52
2023-08-30T07:51:55.046Z,51.4
2023-08-30T07:53:12.150Z,52.1
2023-08-30T07:54:29.254Z,51.1
2023-08-30T07:55:46.358Z,49.6
2023-08-30T07:57:03.462Z,48.7
2023-08-30T07:58:20.567Z,47.8
2023-08-30T07:59:36.687Z,47.9
2023-08-30T08:00:53.791Z,47.8
2023-08-30T08:02:10.896Z,47.4
2023-08-30T08:03:28.000Z,48.7
2023-08-30T08:04:45.104Z,48.8
2023-08-30T08:06:02.208Z,49
2023-08-30T08:07:19.312Z,48.3
2023-08-30T08:08:36.417Z,48.4
2023-08-30T08:09:53.521Z,48
2023-08-30T08:11:10.625Z,47.5
2023-08-30T08:12:27.730Z,47.7
2023-08-30T08:13:44.834Z,47.6
2023-08-30T08:15:01.939Z,47.4
2023-08-30T08:16:18.059Z,47.4
2023-08-30T08:17:35.163Z,46.9
2023-08-30T08:18:52.268Z,46.5
2023-08-30T08:20:09.372Z,46.3
2023-08-30T08:21:26.477Z,45.8
2023-08-30T08:22:43.581Z,45.8
2023-08-30T08:24:00.686Z,45.3
2023-08-30T08:25:17.790Z,44.8
2023-08-30T08:26:34.895Z,44.5
2023-08-30T08:27:51.999Z,44
2023-08-30T08:29:09.103Z,43.6
2023-08-30T08:30:26.208Z,44.7
2023-08-30T08:31:43.313Z,44.4
2023-08-30T08:32:59.433Z,44.2
2023-08-30T08:34:16.538Z,45.2
2023-08-30T08:35:33.643Z,44.5
2023-08-30T08:36:50.747Z,44.1
2023-08-30T08:38:07.851Z,43.8
2023-08-30T08:39:24.956Z,43.8
2023-08-30T08:40:42.060Z,43
2023-08-30T08:41:59.165Z,42.9
2023-08-30T08:43:16.270Z,42.6
2023-08-30T08:44:33.374Z,41.8
2023-08-30T08:45:50.479Z,42
2023-08-30T08:47:07.584Z,41.7
2023-08-30T08:48:24.689Z,41
2023-08-30T08:49:40.809Z,40.5
2023-08-30T08:50:57.914Z,40.9
2023-08-30T08:52:15.019Z,42.2
2023-08-30T08:53:32.123Z,42.8
2023-08-30T08:54:49.228Z,42
2023-08-30T08:56:06.333Z,41.9
2023-08-30T08:57:23.438Z,41.9
2023-08-30T08:58:40.543Z,42
2023-08-30T08:59:57.647Z,42
2023-08-30T09:01:14.752Z,42.3
2023-08-30T09:02:31.857Z,42
2023-08-30T09:03:48.961Z,41.8
2023-08-30T09:05:06.066Z,41.3
2023-08-30T09:06:22.187Z,40.6
2023-08-30T09:07:39.291Z,40.6
2023-08-30T09:08:56.397Z,39.6
2023-08-30T09:10:13.501Z,39.8
2023-08-30T09:11:30.606Z,40.3
2023-08-30T09:12:47.711Z,39.9
2023-08-30T09:14:04.815Z,40
2023-08-30T09:15:21.920Z,39.6
2023-08-30T09:16:39.025Z,39.1
2023-08-30T09:17:56.129Z,39.1
2023-08-30T09:19:13.234Z,40
2023-08-30T09:20:30.339Z,40.6
2023-08-30T09:21:47.444Z,40.4
2023-08-30T09:23:03.565Z,39.8
2023-08-30T09:24:20.669Z,39.3
2023-08-30T09:25:37.774Z,40.1
2023-08-30T09:26:54.879Z,40.3
2023-08-30T09:28:11.983Z,39.5
2023-08-30T09:29:29.088Z,40
2023-08-30T09:30:46.193Z,40
2023-08-30T09:32:03.298Z,39.9
2023-08-30T09:33:20.402Z,41
2023-08-30T09:34:37.507Z,41.1
2023-08-30T09:35:54.611Z,40.7
2023-08-30T09:37:11.716Z,40.3
2023-08-30T09:38:28.820Z,39.7
2023-08-30T09:39:44.941Z,39.7
2023-08-30T09:41:02.045Z,39.8
2023-08-30T09:42:19.150Z,39.6
2023-08-30T09:43:36.255Z,40.4
2023-08-30T09:44:53.359Z,40.1
2023-08-30T09:46:10.464Z,39.4
2023-08-30T09:47:27.568Z,39.4
2023-08-30T09:48:44.672Z,39.9
2023-08-30T09:50:01.777Z,40.9
2023-08-30T09:51:18.881Z,40.9
2023-08-30T09:52:35.986Z,40.5
2023-08-30T09:53:53.091Z,39.8
2023-08-30T09:55:10.195Z,38.7
2023-08-30T09:56:26.316Z,38.8
2023-08-30T09:57:43.420Z,38.3
2023-08-30T09:59:00.525Z,38.5
2023-08-30T10:00:17.629Z,38.2
2023-08-30T10:01:34.734Z,39.6
2023-08-30T10:02:51.838Z,39.9
2023-08-30T10:04:07.959Z,40.4
2023-08-30T10:05:25.063Z,40.2
2023-08-30T10:06:42.168Z,40.7
2023-08-30T10:07:59.272Z,41.8
2023-08-30T10:09:16.377Z,42
2023-08-30T10:10:33.481Z,41.7
2023-08-30T10:11:50.586Z,41.8
2023-08-30T10:13:07.690Z,42.3
2023-08-30T10:14:24.794Z,42.2
2023-08-30T10:15:41.899Z,42.8
2023-08-30T10:16:59.003Z,42.9
2023-08-30T10:18:16.108Z,43.5
2023-08-30T10:19:33.212Z,45.7
2023-08-30T10:20:49.333Z,47.5
2023-08-30T10:22:06.437Z,47.4
2023-08-30T10:23:23.541Z,48.5
2023-08-30T10:24:40.646Z,49.1
2023-08-30T10:25:57.751Z,50
2023-08-30T10:27:14.855Z,50.1
2023-08-30T10:28:31.960Z,47.7
2023-08-30T10:29:49.064Z,46.2
2023-08-30T10:31:06.168Z,46.7
2023-08-30T10:32:23.272Z,46.9
2023-08-30T10:33:40.376Z,47.3
2023-08-30T10:34:57.480Z,47
2023-08-30T10:36:14.585Z,47.4
2023-08-30T10:37:30.705Z,48.5
2023-08-30T10:38:47.810Z,48.4
2023-08-30T10:40:04.914Z,48.4
2023-08-30T10:41:22.018Z,49
2023-08-30T10:42:39.122Z,49.9
2023-08-30T10:43:56.226Z,50.7
2023-08-30T10:45:13.330Z,50.8
2023-08-30T10:46:30.434Z,50.3
2023-08-30T10:47:47.539Z,51
2023-08-30T10:49:04.643Z,51.3
2023-08-30T10:50:21.747Z,51.8
2023-08-30T10:51:38.851Z,52.4
2023-08-30T10:52:55.955Z,52.3
2023-08-30T10:54:12.074Z,52.9
2023-08-30T10:55:29.178Z,53.6
2023-08-30T10:56:46.282Z,54.3
2023-08-30T10:58:03.386Z,55
2023-08-30T10:59:20.490Z,55
2023-08-30T11:00:37.595Z,55.4
2023-08-30T11:01:54.697Z,55.9
2023-08-30T11:03:11.801Z,56
2023-08-30T11:04:28.905Z,55.3
2023-08-30T11:05:46.009Z,55.2
2023-08-30T11:07:03.113Z,55.2
2023-08-30T11:08:20.218Z,55.7
2023-08-30T11:09:37.322Z,56.1
2023-08-30T11:10:53.442Z,55.6
2023-08-30T11:12:10.546Z,55.8
2023-08-30T11:13:27.650Z,56.1
2023-08-30T11:14:44.754Z,56.9
2023-08-30T11:16:01.858Z,57
2023-08-30T11:17:18.962Z,56.8
2023-08-30T11:18:36.066Z,56.8
2023-08-30T11:19:53.170Z,57.6
2023-08-30T11:21:10.274Z,58.3
2023-08-30T11:22:27.379Z,58.9
2023-08-30T11:23:44.483Z,59.4
2023-08-30T11:25:01.587Z,60
2023-08-30T11:26:18.691Z,60.5
2023-08-30T11:27:34.811Z,60.7
2023-08-30T11:28:51.915Z,61
2023-08-30T11:30:09.019Z,60.8
2023-08-30T11:31:26.123Z,60.9
2023-08-30T11:32:43.227Z,61.2
2023-08-30T11:34:00.331Z,61.5
2023-08-30T11:35:17.435Z,61.9
2023-08-30T11:36:34.539Z,61.7
2023-08-30T11:37:51.643Z,62.4
2023-08-30T11:39:08.747Z,62.8
2023-08-30T11:40:25.851Z,63.2
2023-08-30T11:41:42.955Z,63.9
2023-08-30T11:43:00.059Z,65.3
2023-08-30T11:44:16.179Z,66.3
2023-08-30T11:45:33.284Z,67.3
2023-08-30T11:46:50.388Z,67.4
2023-08-30T11:48:07.492Z,68.1
2023-08-30T11:49:24.596Z,68.3
2023-08-30T11:50:41.700Z,69.5
2023-08-30T11:51:58.804Z,70
2023-08-30T11:53:15.909Z,70
2023-08-30T11:54:33.013Z,70.2
2023-08-30T11:55:50.117Z,70.8
2023-08-30T11:57:07.221Z,71.9
2023-08-30T11:58:24.325Z,73
2023-08-30T11:59:41.429Z,73.8
2023-08-30T12:00:57.549Z,73.9
2023-08-30T12:02:14.653Z,73.8
2023-08-30T12:03:31.757Z,73.7
2023-08-30T12:04:48.861Z,73.9
2023-08-30T12:06:05.964Z,73.4
2023-08-30T12:07:23.069Z,73.8
2023-08-30T12:08:40.172Z,73.3
2023-08-30T12:09:57.276Z,72.3
2023-08-30T12:11:14.380Z,72.4
2023-08-30T12:12:31.484Z,72.1
2023-08-30T12:13:48.588Z,72.3
2023-08-30T12:15:05.691Z,72.2
2023-08-30T12:16:22.795Z,72.2
2023-08-30T12:17:38.915Z,72.5
2023-08-30T12:18:56.019Z,72.1
2023-08-30T12:20:13.123Z,71.8
2023-08-30T12:21:30.227Z,71.6
2023-08-30T12:22:47.331Z,71.3
2023-08-30T12:24:04.434Z,70.9
2023-08-30T12:25:21.538Z,71.1
2023-08-30T12:26:38.642Z,71.3
2023-08-30T12:27:55.746Z,71.5
2023-08-30T12:29:12.850Z,71.5
2023-08-30T12:30:29.954Z,71.3
2023-08-30T12:31:47.058Z,71.5
2023-08-30T12:33:04.162Z,71.4
2023-08-30T12:34:20.282Z,71.9
2023-08-30T12:35:37.386Z,71.8
2023-08-30T12:36:54.490Z,71.9
2023-08-30T12:38:11.593Z,71.9
2023-08-30T12:39:28.697Z,71
2023-08-30T12:40:45.801Z,71.6
2023-08-30T12:42:02.905Z,72
2023-08-30T12:43:20.009Z,71.9
2023-08-30T12:44:37.113Z,72.1
2023-08-30T12:45:54.217Z,72.7
2023-08-30T12:47:11.321Z,72.9
2023-08-30T12:48:28.425Z,71.9
2023-08-30T12:49:45.529Z,72.4
2023-08-30T12:51:01.649Z,72.5
2023-08-30T12:52:18.753Z,72.9
2023-08-30T12:53:35.857Z,72
2023-08-30T12:54:52.961Z,71.5
2023-08-30T12:56:10.065Z,70.8
2023-08-30T12:57:27.168Z,70.9
2023-08-30T12:58:44.272Z,71.5
2023-08-30T13:00:01.376Z,71.4
2023-08-30T13:01:18.480Z,70.5
2023-08-30T13:02:35.584Z,71.5
2023-08-30T13:03:52.687Z,71.2
2023-08-30T13:05:09.791Z,71.2
2023-08-30T13:06:26.895Z,72.1
2023-08-30T13:07:43.015Z,72.6
2023-08-30T13:09:00.119Z,73.8
2023-08-30T13:10:17.223Z,75.2
2023-08-30T13:11:34.327Z,75.3
2023-08-30T13:12:51.430Z,75.8
2023-08-30T13:14:08.535Z,76.3
2023-08-30T13:15:25.638Z,76.4
2023-08-30T13:16:42.743Z,77.9
2023-08-30T13:17:59.848Z,78.8
2023-08-30T13:19:16.952Z,78.7
2023-08-30T13:20:34.056Z,78.9
2023-08-30T13:21:51.160Z,78.8
2023-08-30T13:23:08.264Z,79.3
2023-08-30T13:24:24.385Z,80
2023-08-30T13:25:41.489Z,80.5
2023-08-30T13:26:58.593Z,81
2023-08-30T13:28:15.698Z,81.5
2023-08-30T13:29:32.801Z,82.5
2023-08-30T13:30:49.905Z,83.3
2023-08-30T13:32:07.009Z,83.5
2023-08-30T13:33:24.113Z,83.7
2023-08-30T13:34:41.217Z,84.2
2023-08-30T13:35:58.322Z,84.7
2023-08-30T13:37:15.425Z,85.1
2023-08-30T13:38:32.529Z,85.4
2023-08-30T13:39:49.633Z,85.1
2023-08-30T13:41:05.753Z,85.4
2023-08-30T13:42:22.857Z,85.6
2023-08-30T13:43:39.961Z,86.3
2023-08-30T13:44:57.065Z,86.5
2023-08-30T13:46:14.169Z,86.6
2023-08-30T13:47:31.273Z,87
2023-08-30T13:48:48.377Z,87.5
2023-08-30T13:50:05.481Z,87.4
2023-08-30T13:51:22.585Z,87.6
2023-08-30T13:52:39.689Z,88.1
2023-08-30T13:53:56.793Z,88.6
2023-08-30T13:55:13.897Z,88.5
2023-08-30T13:56:31.001Z,87.4
2023-08-30T13:57:47.121Z,88.4
2023-08-30T13:59:04.226Z,88.8
2023-08-30T14:00:21.329Z,88.9
2023-08-30T14:01:38.434Z,89
2023-08-30T14:02:55.538Z,89.2
2023-08-30T14:04:12.642Z,89.2
2023-08-30T14:05:29.746Z,88.7
2023-08-30T14:06:46.850Z,88.6
2023-08-30T14:08:03.954Z,87.8
2023-08-30T14:09:21.058Z,88
2023-08-30T14:10:38.162Z,88.1
2023-08-30T14:11:55.266Z,87
2023-08-30T14:13:12.370Z,87.6
2023-08-30T14:14:28.491Z,88.2
2023-08-30T14:15:45.595Z,88.1
2023-08-30T14:17:02.699Z,88.4
2023-08-30T14:18:19.803Z,87.9
2023-08-30T14:19:36.907Z,87.2
2023-08-30T14:20:54.011Z,87.2
2023-08-30T14:22:10.131Z,87.2
2023-08-30T14:23:27.235Z,87
2023-08-30T14:24:44.339Z,87.3
2023-08-30T14:26:01.443Z,86.8
2023-08-30T14:27:18.548Z,87.1
2023-08-30T14:28:35.652Z,87.7
2023-08-30T14:29:52.756Z,87.2
2023-08-30T14:31:09.860Z,86.3
2023-08-30T14:32:26.964Z,85.8
2023-08-30T14:33:44.069Z,86.6
2023-08-30T14:35:01.171Z,86.5
2023-08-30T14:36:18.275Z,87.2
2023-08-30T14:37:35.379Z,87
2023-08-30T14:38:51.499Z,87.4
2023-08-30T14:40:08.603Z,87.7
2023-08-30T14:41:25.708Z,88.4
2023-08-30T14:42:42.812Z,88.6
2023-08-30T14:43:59.916Z,88.1
2023-08-30T14:45:17.020Z,88.3
2023-08-30T14:46:34.124Z,88.1
2023-08-30T14:47:51.228Z,88.6
2023-08-30T14:49:08.333Z,89
2023-08-30T14:50:25.437Z,88.5
2023-08-30T14:51:42.541Z,88.6
2023-08-30T14:52:59.645Z,88.8
2023-08-30T14:54:16.749Z,89
2023-08-30T14:55:32.870Z,88.7
2023-08-30T14:56:49.974Z,89
2023-08-30T14:58:07.078Z,89.3
2023-08-30T14:59:24.182Z,89.1
2023-08-30T15:00:41.286Z,88
2023-08-30T15:01:58.391Z,87.7
2023-08-30T15:03:15.495Z,88
2023-08-30T15:04:32.599Z,88.4
2023-08-30T15:05:49.704Z,88.3
2023-08-30T15:07:06.808Z,88.3
2023-08-30T15:08:23.912Z,89.1
2023-08-30T15:09:41.016Z,88.8
2023-08-30T15:10:58.120Z,89.3
2023-08-30T15:12:14.241Z,90.2
2023-08-30T15:13:31.345Z,89.8
2023-08-30T15:14:48.449Z,90.1
2023-08-30T15:16:05.553Z,90
2023-08-30T15:17:22.658Z,89.9
2023-08-30T15:18:39.762Z,90.3
2023-08-30T15:19:56.864Z,91.1
2023-08-30T15:21:13.968Z,91.6
2023-08-30T15:22:31.072Z,91.2
2023-08-30T15:23:48.177Z,90.9
2023-08-30T15:25:05.282Z,91.8
2023-08-30T15:26:22.386Z,93.2
2023-08-30T15:27:39.490Z,92.7
2023-08-30T15:28:55.610Z,93.5
2023-08-30T15:30:12.714Z,93.7
2023-08-30T15:31:29.818Z,92.4
2023-08-30T15:32:46.922Z,93.1
2023-08-30T15:34:04.026Z,93.8
2023-08-30T15:35:21.130Z,94.5
2023-08-30T15:36:38.234Z,93.5
2023-08-30T15:37:55.337Z,94.4
2023-08-30T15:39:12.442Z,94.4
2023-08-30T15:40:29.546Z,94.1
2023-08-30T15:41:46.650Z,94.6
2023-08-30T15:43:03.754Z,94.8
2023-08-30T15:44:20.858Z,94.4
2023-08-30T15:45:36.978Z,94.5
2023-08-30T15:46:54.082Z,95
2023-08-30T15:48:11.186Z,94.9
2023-08-30T15:49:28.291Z,95.2
2023-08-30T15:50:45.395Z,95.4
2023-08-30T15:52:02.500Z,95.3
2023-08-30T15:53:19.605Z,94.5
2023-08-30T15:54:36.709Z,94.2
2023-08-30T15:55:53.814Z,94.4
2023-08-30T15:57:10.918Z,94.8
2023-08-30T15:58:28.022Z,94.7
2023-08-30T15:59:45.127Z,94.8
2023-08-30T16:01:02.233Z,94.8
2023-08-30T16:02:18.353Z,94.9
2023-08-30T16:03:35.458Z,95.1
2023-08-30T16:04:52.562Z,94.7
2023-08-30T16:06:09.667Z,94.7
2023-08-30T16:07:26.771Z,94.3
2023-08-30T16:08:43.876Z,94.2
2023-08-30T16:10:00.980Z,93.5
2023-08-30T16:11:18.085Z,93.3
2023-08-30T16:12:35.189Z,93.3
2023-08-30T16:13:52.294Z,93.3
2023-08-30T16:15:09.398Z,93.4
2023-08-30T16:16:26.503Z,93.8
2023-08-30T16:17:43.607Z,94.1
2023-08-30T16:18:59.728Z,94.3
2023-08-30T16:20:16.832Z,94.1
2023-08-30T16:21:33.937Z,94.3
2023-08-30T16:22:51.041Z,94
2023-08-30T16:24:08.146Z,94.1
2023-08-30T16:25:25.250Z,93.6
2023-08-30T16:26:42.354Z,93.2
2023-08-30T16:27:59.458Z,93.1
2023-08-30T16:29:16.562Z,92.5
2023-08-30T16:30:33.666Z,92.2
2023-08-30T16:31:50.770Z,92.4
2023-08-30T16:33:07.874Z,92
2023-08-30T16:34:24.978Z,91.6
2023-08-30T16:35:41.098Z,91.4
2023-08-30T16:36:58.202Z,90.8
2023-08-30T16:38:15.306Z,89.9
2023-08-30T16:39:32.410Z,90.5
2023-08-30T16:40:49.514Z,89.7
2023-08-30T16:42:06.618Z,89.9
2023-08-30T16:43:23.721Z,89.1
2023-08-30T16:44:40.825Z,88.4
2023-08-30T16:45:57.930Z,88.8
2023-08-30T16:47:15.034Z,89
2023-08-30T16:48:32.138Z,88.7
2023-08-30T16:49:49.241Z,87.9
2023-08-30T16:51:06.345Z,87.6
2023-08-30T16:52:22.465Z,87.3
2023-08-30T16:53:39.569Z,86.4
2023-08-30T16:54:56.673Z,87.2
2023-08-30T16:56:13.777Z,86.9
2023-08-30T16:57:30.881Z,87.2
2023-08-30T16:58:47.985Z,87.5
2023-08-30T17:00:05.087Z,87.5
2023-08-30T17:01:22.191Z,87.3
2023-08-30T17:02:39.295Z,87.8
2023-08-30T17:03:56.399Z,87.4
2023-08-30T17:05:13.503Z,87.6
2023-08-30T17:06:30.607Z,88.3
2023-08-30T17:07:47.711Z,88
2023-08-30T17:09:03.832Z,88.8
2023-08-30T17:10:20.936Z,89.3
2023-08-30T17:11:38.040Z,88.8
2023-08-30T17:12:55.144Z,88.4